createdAt,value
2023-03-17T00:00:19.389Z,98941.59
2023-03-17T00:02:48.876Z,98941.56
2023-03-17T00:05:25.538Z,98911.56
2023-03-17T00:07:54.654Z,98941.16
2023-03-17T00:10:26.378Z,98936.28
2023-03-17T00:12:55.214Z,98956.13
2023-03-17T00:15:23.264Z,98966.22
2023-03-17T00:17:50.467Z,98938.50
2023-03-17T00:20:32.460Z,98949.69
2023-03-17T00:23:01.817Z,98924.63
2023-03-17T00:25:31.008Z,98930.28
2023-03-17T00:27:58.063Z,98952.38
2023-03-17T00:30:28.381Z,98941.94
2023-03-17T00:32:58.111Z,98946.78
2023-03-17T00:35:28.673Z,98955.34
2023-03-17T00:37:57.844Z,98958.28
2023-03-17T00:40:28.310Z,98955.69
2023-03-17T00:42:55.728Z,98949.25
2023-03-17T00:45:24.006Z,98933.84
2023-03-17T00:47:53.034Z,98969.91
2023-03-17T00:50:22.197Z,98963.44
2023-03-17T00:52:51.065Z,98957.13
2023-03-17T00:55:19.139Z,98949.69
2023-03-17T00:57:47.539Z,98952.72
2023-03-17T01:00:25.217Z,98953.53
2023-03-17T01:02:57.401Z,98958.75
2023-03-17T01:05:25.830Z,98961.72
2023-03-17T01:07:56.981Z,98971.47
2023-03-17T01:10:26.505Z,98957.56
2023-03-17T01:12:55.562Z,98947.19
2023-03-17T01:15:22.903Z,98963.38
2023-03-17T01:17:50.818Z,98954.75
2023-03-17T01:20:24.384Z,98936.38
2023-03-17T01:22:52.281Z,98972.72
2023-03-17T01:25:20.113Z,98964.88
2023-03-17T01:27:48.081Z,98951.03
2023-03-17T01:30:22.889Z,98960.78
2023-03-17T01:32:50.192Z,98973.16
2023-03-17T01:35:18.090Z,98975.41
2023-03-17T01:37:46.446Z,98964.88
2023-03-17T01:40:23.891Z,98984.75
2023-03-17T01:43:27.318Z,98989.25
2023-03-17T01:46:25.444Z,99011.75
2023-03-17T01:49:13.848Z,98991.88
2023-03-17T01:52:05.150Z,98970.53
2023-03-17T01:54:38.096Z,98973.13
2023-03-17T01:57:40.116Z,98970.50
2023-03-17T02:00:10.923Z,98983.63
2023-03-17T02:02:43.859Z,98983.63
2023-03-17T02:05:15.436Z,98990.38
2023-03-17T02:07:42.675Z,98994.91
2023-03-17T02:10:10.359Z,98988.88
2023-03-17T02:12:42.180Z,99009.09
2023-03-17T02:15:11.575Z,99009.84
2023-03-17T02:17:38.757Z,98996.00
2023-03-17T02:20:12.892Z,99001.59
2023-03-17T02:22:39.810Z,99011.34
2023-03-17T02:25:07.196Z,99007.59
2023-03-17T02:27:42.585Z,99030.47
2023-03-17T02:30:11.758Z,99012.09
2023-03-17T02:32:39.394Z,98993.75
2023-03-17T02:35:08.148Z,99032.34
2023-03-17T02:37:38.201Z,98997.88
2023-03-17T02:40:07.251Z,98989.63
2023-03-17T02:42:34.470Z,99005.38
2023-03-17T02:45:01.474Z,98994.50
2023-03-17T02:47:28.474Z,98994.16
2023-03-17T02:49:55.599Z,99002.38
2023-03-17T02:52:22.451Z,98997.09
2023-03-17T02:54:49.496Z,99010.59
2023-03-17T02:57:16.553Z,98997.84
2023-03-17T02:59:43.496Z,98995.97
2023-03-17T03:02:10.489Z,99018.44
2023-03-17T03:04:37.910Z,99004.59
2023-03-17T03:07:04.953Z,99008.31
2023-03-17T03:09:32.127Z,99011.31
2023-03-17T03:11:58.958Z,99004.56
2023-03-17T03:14:25.941Z,99025.53
2023-03-17T03:16:52.841Z,99006.78
2023-03-17T03:19:20.410Z,99013.94
2023-03-17T03:21:47.302Z,99035.25
2023-03-17T03:24:14.323Z,98998.13
2023-03-17T03:26:41.137Z,99023.53
2023-03-17T03:29:08.936Z,99011.06
2023-03-17T03:31:35.878Z,99015.28
2023-03-17T03:34:02.907Z,99023.38
2023-03-17T03:36:29.920Z,99000.50
2023-03-17T03:38:56.838Z,99019.06
2023-03-17T03:41:23.690Z,99024.34
2023-03-17T03:43:50.591Z,99039.25
2023-03-17T03:46:17.777Z,99022.09
2023-03-17T03:48:44.810Z,99037.09
2023-03-17T03:51:11.749Z,99029.47
2023-03-17T03:53:38.721Z,99050.38
2023-03-17T03:56:06.068Z,99033.66
2023-03-17T03:58:32.919Z,99054.72
2023-03-17T04:00:59.804Z,99045.31
2023-03-17T04:03:26.738Z,99071.41
2023-03-17T04:05:53.625Z,99041.47
2023-03-17T04:08:20.620Z,99067.44
2023-03-17T04:10:47.587Z,99060.16
2023-03-17T04:13:14.558Z,99059.56
2023-03-17T04:15:41.799Z,99067.78
2023-03-17T04:18:08.687Z,99094.34
2023-03-17T04:20:35.650Z,99082.69
2023-03-17T04:23:02.728Z,99054.69
2023-03-17T04:25:29.559Z,99089.50
2023-03-17T04:27:56.492Z,99070.94
2023-03-17T04:30:23.392Z,99090.31
2023-03-17T04:32:50.370Z,99088.00
2023-03-17T04:35:19.952Z,99097.38
2023-03-17T04:37:47.043Z,99089.47
2023-03-17T04:40:15.020Z,99087.94
2023-03-17T04:42:42.144Z,99095.03
2023-03-17T04:45:12.123Z,99091.56
2023-03-17T04:47:39.145Z,99085.50
2023-03-17T04:50:06.585Z,99078.63
2023-03-17T04:52:33.750Z,99083.50
2023-03-17T04:55:00.741Z,99069.53
2023-03-17T04:57:27.699Z,99069.91
2023-03-17T04:59:54.629Z,99092.22
2023-03-17T05:02:21.620Z,99079.88
2023-03-17T05:04:48.590Z,99088.91
2023-03-17T05:07:16.790Z,99077.97
2023-03-17T05:09:43.720Z,99084.91
2023-03-17T05:12:11.155Z,99082.84
2023-03-17T05:14:38.160Z,99089.13
2023-03-17T05:17:05.200Z,99066.34
2023-03-17T05:19:32.225Z,99080.31
2023-03-17T05:21:59.407Z,99078.31
2023-03-17T05:24:26.462Z,99098.28
2023-03-17T05:26:53.483Z,99089.59
2023-03-17T05:29:20.295Z,99102.94
2023-03-17T05:31:47.302Z,99089.34
2023-03-17T05:34:14.197Z,99088.09
2023-03-17T05:36:41.120Z,99091.28
2023-03-17T05:39:08.016Z,99085.59
2023-03-17T05:41:34.936Z,99098.84
2023-03-17T05:44:01.865Z,99101.91
2023-03-17T05:46:28.939Z,99098.19
2023-03-17T05:48:55.751Z,99075.69
2023-03-17T05:51:22.779Z,99116.34
2023-03-17T05:53:49.677Z,99107.72
2023-03-17T05:56:16.645Z,99119.31
2023-03-17T05:58:43.596Z,99109.22
2023-03-17T06:01:10.567Z,99122.41
2023-03-17T06:03:37.402Z,99128.91
2023-03-17T06:06:05.634Z,99141.31
2023-03-17T06:08:32.561Z,99134.97
2023-03-17T06:10:59.453Z,99154.84
2023-03-17T06:13:26.326Z,99154.50
2023-03-17T06:15:53.230Z,99152.69
2023-03-17T06:18:20.106Z,99149.88
2023-03-17T06:20:47.185Z,99159.66
2023-03-17T06:23:14.206Z,99152.97
2023-03-17T06:25:41.129Z,99142.06
2023-03-17T06:28:08.106Z,99142.16
2023-03-17T06:30:37.555Z,99151.16
2023-03-17T06:33:06.340Z,99152.91
2023-03-17T06:35:33.522Z,99155.34
2023-03-17T06:38:01.115Z,99149.56
2023-03-17T06:40:28.333Z,99164.00
2023-03-17T06:42:55.237Z,99143.94
2023-03-17T06:45:22.171Z,99156.31
2023-03-17T06:47:49.247Z,99142.84
2023-03-17T06:50:16.248Z,99142.31
2023-03-17T06:52:44.960Z,99125.00
2023-03-17T06:55:13.462Z,99158.03
2023-03-17T06:57:40.402Z,99166.69
2023-03-17T07:00:10.792Z,99160.47
2023-03-17T07:02:38.124Z,99149.81
2023-03-17T07:05:05.466Z,99150.03
2023-03-17T07:07:32.599Z,99170.91
2023-03-17T07:09:59.412Z,99165.81
2023-03-17T07:12:26.287Z,99129.66
2023-03-17T07:14:53.188Z,99150.97
2023-03-17T07:17:20.031Z,99152.88
2023-03-17T07:19:49.539Z,99160.00
2023-03-17T07:22:16.628Z,99173.13
2023-03-17T07:24:43.501Z,99160.41
2023-03-17T07:27:10.921Z,99158.38
2023-03-17T07:29:37.910Z,99188.00
2023-03-17T07:32:07.946Z,99190.97
2023-03-17T07:34:35.354Z,99187.94
2023-03-17T07:37:03.486Z,99196.16
2023-03-17T07:39:30.663Z,99204.88
2023-03-17T07:41:57.529Z,99209.03
2023-03-17T07:44:25.455Z,99205.97
2023-03-17T07:46:52.393Z,99209.28
2023-03-17T07:49:34.087Z,99231.16
2023-03-17T07:52:08.446Z,99240.88
2023-03-17T07:54:36.058Z,99202.91
2023-03-17T07:57:03.668Z,99200.34
2023-03-17T07:59:30.518Z,99215.03
2023-03-17T08:01:58.266Z,99199.91
2023-03-17T08:04:25.209Z,99207.50
2023-03-17T08:06:52.433Z,99227.63
2023-03-17T08:09:19.321Z,99221.88
2023-03-17T08:11:46.328Z,99213.53
2023-03-17T08:14:13.286Z,99225.66
2023-03-17T08:16:40.409Z,99224.53
2023-03-17T08:19:07.731Z,99237.56
2023-03-17T08:21:34.666Z,99225.38
2023-03-17T08:24:01.594Z,99238.56
2023-03-17T08:26:28.590Z,99251.91
2023-03-17T08:28:55.422Z,99257.69
2023-03-17T08:31:22.747Z,99219.81
2023-03-17T08:33:52.403Z,99255.56
2023-03-17T08:36:20.773Z,99249.94
2023-03-17T08:38:48.614Z,99258.78
2023-03-17T08:41:18.901Z,99254.47
2023-03-17T08:43:46.735Z,99255.06
2023-03-17T08:46:25.611Z,99273.94
2023-03-17T08:48:54.097Z,99279.84
2023-03-17T08:51:24.365Z,99264.63
2023-03-17T08:53:53.301Z,99288.50
2023-03-17T08:56:20.748Z,99268.94
2023-03-17T08:58:48.386Z,99286.63
2023-03-17T09:01:16.512Z,99263.91
2023-03-17T09:03:44.300Z,99270.50
2023-03-17T09:06:12.229Z,99288.38
2023-03-17T09:08:41.494Z,99272.63
2023-03-17T09:11:09.503Z,99289.03
2023-03-17T09:13:37.259Z,99318.56
2023-03-17T09:16:04.307Z,99297.06
2023-03-17T09:18:31.414Z,99309.16
2023-03-17T09:20:58.309Z,99311.03
2023-03-17T09:23:27.673Z,99303.59
2023-03-17T09:25:54.972Z,99288.38
2023-03-17T09:28:21.949Z,99299.41
2023-03-17T09:30:48.871Z,99293.56
2023-03-17T09:33:16.337Z,99320.28
2023-03-17T09:35:43.697Z,99306.13
2023-03-17T09:38:11.146Z,99303.50
2023-03-17T09:40:52.886Z,99295.44
2023-03-17T09:43:25.928Z,99301.47
2023-03-17T09:45:53.242Z,99321.94
2023-03-17T09:48:28.672Z,99321.81
2023-03-17T09:51:07.888Z,99315.38
2023-03-17T09:53:40.739Z,99304.22
2023-03-17T09:56:14.321Z,99297.97
2023-03-17T09:58:51.773Z,99318.72
2023-03-17T10:01:19.378Z,99329.25
2023-03-17T10:03:47.730Z,99309.13
2023-03-17T10:06:20.680Z,99329.47
2023-03-17T10:09:34.453Z,99315.13
2023-03-17T10:12:15.368Z,99335.56
2023-03-17T10:15:06.994Z,99353.88
2023-03-17T10:17:40.610Z,99360.00
2023-03-17T10:20:09.453Z,99345.03
2023-03-17T10:22:41.753Z,99360.50
2023-03-17T10:25:29.116Z,99381.25
2023-03-17T10:27:58.887Z,99353.44
2023-03-17T10:30:26.214Z,99377.22
2023-03-17T10:32:59.015Z,99376.91
2023-03-17T10:35:26.532Z,99373.44
2023-03-17T10:38:08.014Z,99374.03
2023-03-17T10:40:40.576Z,99358.06
2023-03-17T10:43:17.241Z,99369.13
2023-03-17T10:46:02.625Z,99355.81
2023-03-17T10:48:31.376Z,99376.94
2023-03-17T10:50:58.590Z,99388.69
2023-03-17T10:53:27.789Z,99366.78
2023-03-17T10:55:59.156Z,99385.25
2023-03-17T10:58:29.167Z,99372.84
2023-03-17T11:00:57.290Z,99349.50
2023-03-17T11:03:28.700Z,99363.53
2023-03-17T11:06:03.331Z,99371.59
2023-03-17T11:08:35.868Z,99362.38
2023-03-17T11:11:07.574Z,99361.09
2023-03-17T11:13:34.645Z,99365.03
2023-03-17T11:16:21.083Z,99383.09
2023-03-17T11:18:51.500Z,99371.13
2023-03-17T11:21:56.251Z,99421.81
2023-03-17T11:24:33.804Z,99387.34
2023-03-17T11:27:02.812Z,99392.44
2023-03-17T11:30:02.673Z,99393.38
2023-03-17T11:32:36.293Z,99415.03
2023-03-17T11:35:18.231Z,99418.16
2023-03-17T11:38:19.068Z,99412.56
2023-03-17T11:41:03.966Z,99417.47
2023-03-17T11:43:43.863Z,99431.34
2023-03-17T11:46:46.601Z,99416.09
2023-03-17T11:49:22.208Z,99405.22
2023-03-17T11:52:07.661Z,99415.28
2023-03-17T11:54:40.823Z,99410.38
2023-03-17T11:57:21.661Z,99414.81
2023-03-17T11:59:58.723Z,99429.28
2023-03-17T12:02:32.053Z,99413.59
2023-03-17T12:05:04.150Z,99417.94
2023-03-17T12:07:52.681Z,99422.28
2023-03-17T12:10:26.647Z,99405.44
2023-03-17T12:13:00.468Z,99418.78
2023-03-17T12:15:36.168Z,99442.00
2023-03-17T12:18:09.633Z,99422.56
2023-03-17T12:20:46.718Z,99448.09
2023-03-17T12:23:26.105Z,99429.13
2023-03-17T12:26:05.033Z,99420.44
2023-03-17T12:28:38.704Z,99445.28
2023-03-17T12:31:32.062Z,99453.28
2023-03-17T12:34:36.425Z,99444.19
2023-03-17T12:37:04.079Z,99448.53
2023-03-17T12:39:34.154Z,99444.31
2023-03-17T12:42:13.049Z,99437.50
2023-03-17T12:44:43.070Z,99444.25
2023-03-17T12:47:27.266Z,99447.06
2023-03-17T12:50:09.458Z,99472.66
2023-03-17T12:53:21.060Z,99453.78
2023-03-17T12:55:52.498Z,99443.19
2023-03-17T12:58:32.266Z,99443.41
2023-03-17T13:01:05.064Z,99439.94
2023-03-17T13:03:34.460Z,99451.84
2023-03-17T13:06:05.173Z,99453.78
2023-03-17T13:08:39.984Z,99454.56
2023-03-17T13:11:17.706Z,99441.78
2023-03-17T13:13:53.830Z,99471.03
2023-03-17T13:16:40.848Z,99463.00
2023-03-17T13:19:21.053Z,99480.44
2023-03-17T13:21:52.728Z,99468.09
2023-03-17T13:24:36.306Z,99460.75
2023-03-17T13:27:04.267Z,99487.06
2023-03-17T13:29:34.196Z,99483.91
2023-03-17T13:32:31.743Z,99478.47
2023-03-17T13:35:01.694Z,99491.28
2023-03-17T13:37:54.220Z,99485.66
2023-03-17T13:41:05.977Z,99503.84
2023-03-17T13:43:46.435Z,99506.75
2023-03-17T13:46:21.056Z,99511.97
2023-03-17T13:48:48.969Z,99488.47
2023-03-17T13:51:19.772Z,99518.47
2023-03-17T13:53:52.312Z,99543.94
2023-03-17T13:56:26.652Z,99523.09
2023-03-17T13:58:58.453Z,99541.31
2023-03-17T14:01:26.710Z,99526.38
2023-03-17T14:03:56.298Z,99557.69
2023-03-17T14:06:28.513Z,99554.75
2023-03-17T14:09:00.953Z,99569.47
2023-03-17T14:11:36.885Z,99580.28
2023-03-17T14:14:36.139Z,99555.16
2023-03-17T14:17:15.199Z,99579.50
2023-03-17T14:20:00.537Z,99615.69
2023-03-17T14:22:27.637Z,99568.31
2023-03-17T14:24:56.343Z,99585.88
2023-03-17T14:27:25.037Z,99597.78
2023-03-17T14:29:52.412Z,99604.88
2023-03-17T14:32:23.453Z,99583.22
2023-03-17T14:34:58.746Z,99615.63
2023-03-17T14:37:27.629Z,99640.09
2023-03-17T14:39:57.131Z,99622.00
2023-03-17T14:42:29.767Z,99639.78
2023-03-17T14:45:02.867Z,99633.00
2023-03-17T14:47:37.458Z,99660.25
2023-03-17T14:50:14.533Z,99678.91
2023-03-17T14:52:41.575Z,99660.66
2023-03-17T14:55:14.740Z,99685.34
2023-03-17T14:57:42.101Z,99672.72
2023-03-17T15:00:27.131Z,99697.47
2023-03-17T15:02:58.433Z,99694.50
2023-03-17T15:05:40.409Z,99699.28
2023-03-17T15:08:29.994Z,99716.31
2023-03-17T15:11:02.477Z,99717.97
2023-03-17T15:13:35.317Z,99708.88
2023-03-17T15:16:25.196Z,99731.47
2023-03-17T15:19:03.333Z,99736.06
2023-03-17T15:21:41.005Z,99700.78
2023-03-17T15:24:33.728Z,99723.38
2023-03-17T15:27:14.163Z,99711.03
2023-03-17T15:29:41.324Z,99722.06
2023-03-17T15:32:14.508Z,99743.16
2023-03-17T15:34:41.896Z,99740.53
2023-03-17T15:37:18.096Z,99751.03
2023-03-17T15:39:45.390Z,99741.22
2023-03-17T15:42:12.205Z,99745.41
2023-03-17T15:44:39.179Z,99744.09
2023-03-17T15:47:06.250Z,99778.66
2023-03-17T15:49:34.103Z,99773.66
2023-03-17T15:52:01.043Z,99748.38
2023-03-17T15:54:28.034Z,99774.78
2023-03-17T15:56:54.874Z,99773.22
2023-03-17T15:59:22.071Z,99783.44
2023-03-17T16:01:49.125Z,99769.13
2023-03-17T16:04:16.463Z,99772.47
2023-03-17T16:06:43.439Z,99766.78
2023-03-17T16:09:15.534Z,99787.09
2023-03-17T16:11:42.594Z,99783.41
2023-03-17T16:14:10.433Z,99782.09
2023-03-17T16:16:43.139Z,99774.16
2023-03-17T16:19:22.156Z,99778.41
2023-03-17T16:21:49.257Z,99797.50
2023-03-17T16:24:21.787Z,99777.22
2023-03-17T16:26:49.642Z,99821.31
2023-03-17T16:29:19.958Z,99802.84
2023-03-17T16:31:49.652Z,99804.50
2023-03-17T16:34:21.783Z,99821.59
2023-03-17T16:36:49.917Z,99808.34
2023-03-17T16:39:19.041Z,99796.28
2023-03-17T16:41:47.594Z,99796.91
2023-03-17T16:44:16.689Z,99808.03
2023-03-17T16:46:43.755Z,99791.88
2023-03-17T16:49:28.925Z,99796.13
2023-03-17T16:51:55.927Z,99810.03
2023-03-17T16:54:22.764Z,99832.75
2023-03-17T16:56:50.506Z,99821.75
2023-03-17T16:59:21.215Z,99835.03
2023-03-17T17:01:48.618Z,99827.13
2023-03-17T17:04:15.608Z,99836.72
2023-03-17T17:06:43.594Z,99830.00
2023-03-17T17:09:10.619Z,99866.47
2023-03-17T17:11:38.063Z,99883.06
2023-03-17T17:14:05.047Z,99840.38
2023-03-17T17:16:36.404Z,99866.16
2023-03-17T17:19:09.566Z,99862.00
2023-03-17T17:21:36.582Z,99857.00
2023-03-17T17:24:03.539Z,99869.06
2023-03-17T17:26:30.957Z,99870.09
2023-03-17T17:28:57.804Z,99874.38
2023-03-17T17:31:25.068Z,99878.97
2023-03-17T17:33:52.294Z,99864.31
2023-03-17T17:36:19.386Z,99885.97
2023-03-17T17:38:46.660Z,99890.72
2023-03-17T17:41:14.525Z,99876.06
2023-03-17T17:43:41.482Z,99914.66
2023-03-17T17:46:15.637Z,99916.97
2023-03-17T17:48:42.781Z,99905.19
2023-03-17T17:51:09.683Z,99944.72
2023-03-17T17:53:36.749Z,99940.91
2023-03-17T17:56:03.810Z,99920.91
2023-03-17T17:58:31.012Z,99936.03
2023-03-17T18:00:58.293Z,99949.16
2023-03-17T18:03:26.838Z,99928.69
2023-03-17T18:05:58.153Z,99938.47
2023-03-17T18:08:25.984Z,99925.66
2023-03-17T18:10:53.496Z,99934.19
2023-03-17T18:13:20.629Z,99943.50
2023-03-17T18:15:47.924Z,99917.72
2023-03-17T18:18:15.003Z,99933.88
2023-03-17T18:20:42.229Z,99945.78
2023-03-17T18:23:09.510Z,99925.34
2023-03-17T18:25:36.655Z,99960.56
2023-03-17T18:28:03.606Z,99942.59
2023-03-17T18:30:32.014Z,99952.50
2023-03-17T18:33:23.037Z,99960.72
2023-03-17T18:35:51.682Z,99932.06
2023-03-17T18:38:18.653Z,99953.53
2023-03-17T18:40:46.021Z,99943.34
2023-03-17T18:43:13.023Z,99972.78
2023-03-17T18:45:40.158Z,99955.69
2023-03-17T18:48:07.279Z,99949.59
2023-03-17T18:50:34.561Z,99948.22
2023-03-17T18:53:01.532Z,99942.09
2023-03-17T18:55:28.475Z,99959.50
2023-03-17T18:57:56.552Z,99981.03
2023-03-17T19:00:24.110Z,99991.09
2023-03-17T19:02:51.837Z,99972.47
2023-03-17T19:05:18.802Z,99972.34
2023-03-17T19:07:45.804Z,99981.19
2023-03-17T19:10:13.814Z,99998.25
2023-03-17T19:12:41.609Z,99999.47
2023-03-17T19:15:09.604Z,99989.25
2023-03-17T19:17:36.554Z,99997.16
2023-03-17T19:20:04.221Z,100009.88
2023-03-17T19:22:31.110Z,100016.16
2023-03-17T19:24:58.425Z,100010.34
2023-03-17T19:27:25.544Z,100009.56
2023-03-17T19:29:52.607Z,100054.59
2023-03-17T19:32:19.500Z,100005.47
2023-03-17T19:34:46.418Z,100015.84
2023-03-17T19:37:14.110Z,100008.94
2023-03-17T19:39:41.142Z,100001.16
2023-03-17T19:42:08.102Z,100001.00
2023-03-17T19:44:35.075Z,100006.03
2023-03-17T19:47:01.949Z,100007.72
2023-03-17T19:49:28.942Z,100006.06
2023-03-17T19:51:55.952Z,99979.19
2023-03-17T19:54:23.437Z,99990.03
2023-03-17T19:56:50.612Z,99992.16
2023-03-17T19:59:17.595Z,100011.25
2023-03-17T20:01:44.469Z,100011.84
2023-03-17T20:04:11.631Z,100009.72
2023-03-17T20:06:38.576Z,99994.47
2023-03-17T20:09:05.935Z,100007.41
2023-03-17T20:11:32.765Z,100015.50
2023-03-17T20:14:04.029Z,100005.75
2023-03-17T20:16:35.117Z,99998.91
2023-03-17T20:19:03.098Z,99998.59
2023-03-17T20:21:30.100Z,100034.47
2023-03-17T20:23:57.285Z,99996.75
2023-03-17T20:26:24.668Z,99999.34
2023-03-17T20:28:52.098Z,99999.94
2023-03-17T20:31:19.072Z,100014.63
2023-03-17T20:33:48.381Z,100036.78
2023-03-17T20:36:15.390Z,100032.47
2023-03-17T20:38:42.260Z,100032.78
2023-03-17T20:41:12.922Z,100042.84
2023-03-17T20:43:40.517Z,100026.69
2023-03-17T20:46:09.428Z,100039.34
2023-03-17T20:48:37.420Z,100029.69
2023-03-17T20:51:07.459Z,100012.75
2023-03-17T20:53:34.516Z,100023.31
2023-03-17T20:56:01.341Z,100037.97
2023-03-17T20:58:28.311Z,100039.66
2023-03-17T21:00:55.292Z,100014.91
2023-03-17T21:03:22.299Z,100019.78
2023-03-17T21:05:49.513Z,100031.81
2023-03-17T21:08:16.466Z,100026.59
2023-03-17T21:10:43.321Z,100030.47
2023-03-17T21:13:10.424Z,100042.03
2023-03-17T21:15:37.509Z,100060.34
2023-03-17T21:18:04.765Z,100059.78
2023-03-17T21:20:32.382Z,100045.25
2023-03-17T21:22:59.656Z,100061.44
2023-03-17T21:25:26.730Z,100058.53
2023-03-17T21:27:53.519Z,100068.91
2023-03-17T21:30:20.548Z,100065.25
2023-03-17T21:32:47.501Z,100045.22
2023-03-17T21:35:14.528Z,100044.16
2023-03-17T21:37:41.428Z,100061.47
2023-03-17T21:40:09.068Z,100073.19
2023-03-17T21:42:35.997Z,100051.94
2023-03-17T21:45:02.994Z,100027.06
2023-03-17T21:47:29.951Z,100044.19
2023-03-17T21:49:57.477Z,100065.56
2023-03-17T21:52:25.163Z,100071.19
2023-03-17T21:54:52.047Z,100059.16
2023-03-17T21:57:19.031Z,100064.59
2023-03-17T21:59:46.113Z,100066.66
2023-03-17T22:02:13.541Z,100076.22
2023-03-17T22:04:40.404Z,100075.63
2023-03-17T22:07:07.443Z,100089.34
2023-03-17T22:09:34.311Z,100077.19
2023-03-17T22:12:01.133Z,100101.00
2023-03-17T22:14:28.035Z,100090.16
2023-03-17T22:16:54.939Z,100079.78
2023-03-17T22:19:21.908Z,100076.72
2023-03-17T22:21:49.511Z,100088.44
2023-03-17T22:24:16.558Z,100091.94
2023-03-17T22:26:43.499Z,100091.69
2023-03-17T22:29:10.419Z,100093.50
2023-03-17T22:31:37.295Z,100117.16
2023-03-17T22:34:04.281Z,100094.75
2023-03-17T22:36:31.314Z,100112.59
2023-03-17T22:38:59.206Z,100112.91
2023-03-17T22:41:29.250Z,100115.50
2023-03-17T22:43:56.557Z,100085.25
2023-03-17T22:46:24.434Z,100107.97
2023-03-17T22:48:51.524Z,100117.75
2023-03-17T22:51:23.583Z,100124.63
2023-03-17T22:53:51.680Z,100118.50
2023-03-17T22:56:20.075Z,100131.94
2023-03-17T22:58:47.404Z,100121.22
2023-03-17T23:01:16.655Z,100123.41
2023-03-17T23:03:44.321Z,100140.66
2023-03-17T23:06:12.304Z,100117.91
2023-03-17T23:08:40.759Z,100112.91
2023-03-17T23:11:11.245Z,100171.91
2023-03-17T23:13:38.877Z,100116.50
2023-03-17T23:16:06.436Z,100137.59
2023-03-17T23:18:33.612Z,100126.19
2023-03-17T23:21:02.144Z,100139.88
2023-03-17T23:23:29.258Z,100119.09
2023-03-17T23:25:56.326Z,100121.50
2023-03-17T23:28:23.677Z,100125.13
2023-03-17T23:30:52.161Z,100119.41
2023-03-17T23:33:19.104Z,100123.72
2023-03-17T23:35:46.043Z,100127.00
2023-03-17T23:38:13.147Z,100120.38
2023-03-17T23:40:39.994Z,100138.31
2023-03-17T23:43:06.954Z,100138.41
2023-03-17T23:45:33.902Z,100136.13
2023-03-17T23:48:01.177Z,100163.22
2023-03-17T23:50:28.036Z,100152.75
2023-03-17T23:52:54.973Z,100124.81
2023-03-17T23:55:21.762Z,100144.97
2023-03-17T23:57:49.045Z,100165.44
